Time;durP1;ratioP1;P1;durP2;ratioP2;P2;SDS_P1;SDS_P2;PMS_P1;PMS_P2;Temp;Humidity;BMP_temperature;BMP_pressure;BME280_temperature;BME280_humidity;BME280_pressure;Samples;Min_cycle;Max_cycle;Signal;HPM_P1;HPM_P2
2022/11/07 00:01:35;;;;;;;164.97;57.23;;;;;;;;;;4970529;28;20224;-70
2022/11/07 00:04:01;;;;;;;214.23;72.73;;;;;;;;;;4971733;28;20213;-70
2022/11/07 00:06:27;;;;;;;152.50;53.00;;;;;;;;;;4960940;28;20217;-70
2022/11/07 00:08:54;;;;;;;162.50;57.20;;;;;;;;;;4967397;28;20332;-70
2022/11/07 00:11:20;;;;;;;75.27;33.77;;;;;;;;;;4968926;28;20213;-70
2022/11/07 00:13:46;;;;;;;153.63;56.20;;;;;;;;;;4971968;28;20248;-70
2022/11/07 00:16:12;;;;;;;129.13;51.57;;;;;;;;;;4968328;28;20225;-71
2022/11/07 00:18:38;;;;;;;193.53;66.03;;;;;;;;;;4971052;28;20721;-71
2022/11/07 00:21:06;;;;;;;138.53;50.07;;;;;;;;;;4973419;28;20181;-70
2022/11/07 00:23:31;;;;;;;157.23;57.33;;;;;;;;;;4969173;28;20268;-71
2022/11/07 00:26:24;;;;;;;110.73;45.37;;;;;;;;;;4966423;28;20209;-71
2022/11/07 00:28:49;;;;;;;215.87;72.77;;;;;;;;;;4957078;28;20222;-70
2022/11/07 00:31:16;;;;;;;162.27;59.07;;;;;;;;;;4964800;28;20244;-71
2022/11/07 00:33:42;;;;;;;147.30;55.40;;;;;;;;;;4964738;28;20642;-71
2022/11/07 00:36:09;;;;;;;166.07;59.03;;;;;;;;;;4968337;28;20244;-70
2022/11/07 00:38:35;;;;;;;202.50;70.57;;;;;;;;;;4956600;28;20387;-71
2022/11/07 00:41:05;;;;;;;186.87;64.20;;;;;;;;;;4961123;28;20225;-70
2022/11/07 00:43:31;;;;;;;126.27;49.00;;;;;;;;;;4962391;28;20216;-70
2022/11/07 00:45:59;;;;;;;171.77;60.93;;;;;;;;;;4963919;28;20212;-70
2022/11/07 00:48:25;;;;;;;175.47;60.20;;;;;;;;;;4969671;28;20190;-71
2022/11/07 00:50:51;;;;;;;178.97;61.60;;;;;;;;;;4977783;28;20606;-70
2022/11/07 00:53:17;;;;;;;205.37;68.03;;;;;;;;;;4966987;28;20299;-70
2022/11/07 00:55:43;;;;;;;215.97;71.53;;;;;;;;;;4966249;28;20733;-70
2022/11/07 00:58:09;;;;;;;164.60;60.30;;;;;;;;;;4965144;28;20220;-70
2022/11/07 01:00:36;;;;;;;187.00;65.70;;;;;;;;;;4963235;28;20182;-70
2022/11/07 01:05:59;;;;;;;207.77;70.53;;;;;;;;;;4974112;28;20317;-70
2022/11/07 01:08:25;;;;;;;134.10;48.37;;;;;;;;;;4958347;28;20232;-70
2022/11/07 01:10:51;;;;;;;166.57;59.93;;;;;;;;;;4961627;28;20221;-71
2022/11/07 01:13:17;;;;;;;130.77;49.23;;;;;;;;;;4955067;28;20327;-71
2022/11/07 01:15:43;;;;;;;137.57;53.47;;;;;;;;;;4962254;28;20211;-71
2022/11/07 01:18:09;;;;;;;213.47;72.70;;;;;;;;;;4963720;28;20575;-71
2022/11/07 01:20:35;;;;;;;89.43;41.30;;;;;;;;;;4973945;28;20210;-70
2022/11/07 01:23:01;;;;;;;183.17;64.80;;;;;;;;;;4995188;28;21846;-70
2022/11/07 01:25:27;;;;;;;165.90;59.10;;;;;;;;;;4971533;28;20205;-70
2022/11/07 01:27:53;;;;;;;155.73;61.10;;;;;;;;;;4966081;28;20305;-70
2022/11/07 01:30:19;;;;;;;177.63;65.77;;;;;;;;;;4963843;28;20185;-70
2022/11/07 01:32:45;;;;;;;212.57;74.17;;;;;;;;;;4966320;28;20221;-71
2022/11/07 01:35:11;;;;;;;170.93;63.27;;;;;;;;;;4974761;28;20615;-70
2022/11/07 01:37:37;;;;;;;255.10;83.07;;;;;;;;;;4964137;28;22107;-70
2022/11/07 01:40:03;;;;;;;170.50;60.83;;;;;;;;;;4955928;28;20260;-70
2022/11/07 01:42:29;;;;;;;239.30;79.97;;;;;;;;;;4979192;28;20204;-70
2022/11/07 01:44:58;;;;;;;171.23;63.57;;;;;;;;;;4976527;28;20846;-70
2022/11/07 01:47:30;;;;;;;159.53;58.47;;;;;;;;;;4980258;28;20605;-70
2022/11/07 01:49:57;;;;;;;122.37;48.87;;;;;;;;;;4980427;28;20609;-70
2022/11/07 01:52:23;;;;;;;245.40;81.30;;;;;;;;;;4965266;28;20576;-70
2022/11/07 01:55:06;;;;;;;128.10;51.63;;;;;;;;;;4960624;28;22039;-71
2022/11/07 01:57:39;;;;;;;202.60;68.37;;;;;;;;;;4980013;28;20752;-70
2022/11/07 02:00:06;;;;;;;150.00;55.87;;;;;;;;;;4974587;28;20228;-71
2022/11/07 02:02:33;;;;;;;162.30;59.13;;;;;;;;;;4971319;28;20311;-70
2022/11/07 02:05:00;;;;;;;155.80;58.40;;;;;;;;;;4975196;28;20220;-70
2022/11/07 02:07:26;;;;;;;65.90;35.77;;;;;;;;;;4982162;28;20308;-70
2022/11/07 02:09:52;;;;;;;144.40;56.00;;;;;;;;;;4985897;28;21388;-71
2022/11/07 02:12:19;;;;;;;175.53;66.30;;;;;;;;;;4970296;28;20182;-71
2022/11/07 02:14:45;;;;;;;177.37;65.93;;;;;;;;;;4977398;28;20218;-71
2022/11/07 02:17:12;;;;;;;142.23;58.33;;;;;;;;;;4962893;28;20901;-71
2022/11/07 02:19:41;;;;;;;118.93;51.53;;;;;;;;;;4969888;28;20730;-70
2022/11/07 02:22:15;;;;;;;124.63;53.23;;;;;;;;;;4974337;28;20223;-71
2022/11/07 02:24:41;;;;;;;154.30;60.70;;;;;;;;;;4964735;28;20236;-71
2022/11/07 02:27:11;;;;;;;176.17;69.87;;;;;;;;;;4975920;28;20312;-71
2022/11/07 02:29:38;;;;;;;172.27;69.13;;;;;;;;;;4959863;28;20625;-71
2022/11/07 02:32:05;;;;;;;153.23;62.87;;;;;;;;;;4966109;28;20224;-71
2022/11/07 02:34:31;;;;;;;133.70;58.77;;;;;;;;;;4967663;28;20242;-71
2022/11/07 02:36:58;;;;;;;164.97;66.73;;;;;;;;;;4959282;28;20259;-71
2022/11/07 02:39:24;;;;;;;128.37;56.47;;;;;;;;;;4971299;28;20201;-71
2022/11/07 02:41:51;;;;;;;220.43;84.57;;;;;;;;;;4965081;28;20225;-71
2022/11/07 02:44:18;;;;;;;120.57;55.17;;;;;;;;;;4973211;28;20213;-70
2022/11/07 02:46:44;;;;;;;197.13;73.97;;;;;;;;;;4967390;28;20221;-70
2022/11/07 02:49:10;;;;;;;150.63;63.07;;;;;;;;;;4965729;28;20216;-70
2022/11/07 02:51:36;;;;;;;154.53;63.43;;;;;;;;;;4968354;28;20188;-71
2022/11/07 02:54:02;;;;;;;310.27;113.17;;;;;;;;;;4965876;28;20542;-70
2022/11/07 02:56:28;;;;;;;169.47;71.00;;;;;;;;;;4964757;28;20232;-70
2022/11/07 02:58:54;;;;;;;148.43;65.50;;;;;;;;;;4966665;28;20217;-70
2022/11/07 03:01:20;;;;;;;155.63;68.13;;;;;;;;;;4982287;28;20283;-71
2022/11/07 03:03:47;;;;;;;182.20;73.20;;;;;;;;;;4964000;28;20625;-70
2022/11/07 03:06:15;;;;;;;194.03;75.90;;;;;;;;;;4964579;28;20213;-70
2022/11/07 03:08:42;;;;;;;144.17;62.73;;;;;;;;;;4965422;28;20209;-70
2022/11/07 03:11:08;;;;;;;179.07;76.90;;;;;;;;;;4959174;28;20298;-71
2022/11/07 03:13:34;;;;;;;138.97;65.57;;;;;;;;;;4976113;28;20229;-70
2022/11/07 03:16:04;;;;;;;254.20;98.13;;;;;;;;;;4972245;28;20275;-70
2022/11/07 03:18:30;;;;;;;199.83;80.57;;;;;;;;;;4965030;28;20267;-70
2022/11/07 03:20:56;;;;;;;152.73;66.83;;;;;;;;;;4985272;28;20272;-70
2022/11/07 03:23:21;;;;;;;134.67;64.23;;;;;;;;;;4969481;28;20236;-70
2022/11/07 03:25:47;;;;;;;122.93;60.10;;;;;;;;;;4971269;28;20208;-70
2022/11/07 03:28:13;;;;;;;203.33;84.00;;;;;;;;;;4967590;28;20586;-71
2022/11/07 03:30:39;;;;;;;122.60;61.60;;;;;;;;;;4965236;28;21257;-71
2022/11/07 03:33:05;;;;;;;140.00;68.53;;;;;;;;;;4987549;28;20181;-70
2022/11/07 03:35:31;;;;;;;142.47;67.00;;;;;;;;;;4991276;28;20217;-71
2022/11/07 03:37:57;;;;;;;77.63;50.27;;;;;;;;;;4970608;28;20221;-71
2022/11/07 03:40:23;;;;;;;206.03;83.77;;;;;;;;;;4979028;28;20276;-71
2022/11/07 03:42:49;;;;;;;79.53;52.30;;;;;;;;;;4980301;28;20221;-71
2022/11/07 03:45:15;;;;;;;260.30;106.60;;;;;;;;;;4978319;28;20217;-70
2022/11/07 03:47:42;;;;;;;118.93;62.93;;;;;;;;;;4963945;28;20283;-71
2022/11/07 03:50:09;;;;;;;123.53;63.87;;;;;;;;;;4976102;28;20465;-70
2022/11/07 03:52:35;;;;;;;141.57;67.80;;;;;;;;;;4974201;28;20244;-71
2022/11/07 03:55:01;;;;;;;125.90;65.13;;;;;;;;;;4970736;28;20233;-70
2022/11/07 03:57:27;;;;;;;92.60;55.07;;;;;;;;;;4976206;28;20206;-70
2022/11/07 03:59:53;;;;;;;221.53;94.93;;;;;;;;;;4967349;28;20212;-71
2022/11/07 04:02:19;;;;;;;150.70;68.87;;;;;;;;;;4964347;28;20216;-70
2022/11/07 04:04:45;;;;;;;80.40;54.20;;;;;;;;;;4970426;28;20489;-71
2022/11/07 04:07:11;;;;;;;105.53;59.73;;;;;;;;;;4980144;28;20661;-71
2022/11/07 04:09:37;;;;;;;205.50;86.10;;;;;;;;;;4966960;28;20236;-71
2022/11/07 04:17:33;;;;;;;150.23;70.27;;;;;;;;;;4974266;28;20237;-71
2022/11/07 04:19:59;;;;;;;119.73;62.90;;;;;;;;;;4970820;28;20233;-70
2022/11/07 04:22:26;;;;;;;135.63;65.93;;;;;;;;;;4963173;28;21583;-71
2022/11/07 04:24:52;;;;;;;193.73;83.17;;;;;;;;;;4980908;28;20647;-71
2022/11/07 04:30:25;;;;;;;178.03;78.60;;;;;;;;;;4971127;28;20217;-71
2022/11/07 04:32:55;;;;;;;86.13;52.97;;;;;;;;;;4988246;28;20214;-71
2022/11/07 04:35:22;;;;;;;147.90;69.03;;;;;;;;;;4967984;28;20450;-71
2022/11/07 04:37:48;;;;;;;117.07;60.47;;;;;;;;;;4966119;28;20700;-71
2022/11/07 04:40:15;;;;;;;172.87;80.10;;;;;;;;;;4962900;28;20245;-71
2022/11/07 04:42:41;;;;;;;237.00;94.90;;;;;;;;;;4961996;28;20193;-71
2022/11/07 04:45:09;;;;;;;182.73;82.87;;;;;;;;;;4961243;28;20186;-71
2022/11/07 04:47:35;;;;;;;81.70;54.23;;;;;;;;;;4976613;28;20387;-71
2022/11/07 04:50:01;;;;;;;203.87;85.67;;;;;;;;;;4963470;28;20217;-71
2022/11/07 04:52:27;;;;;;;131.87;67.37;;;;;;;;;;4974438;28;20532;-71
2022/11/07 04:54:53;;;;;;;161.83;76.50;;;;;;;;;;4969234;28;20595;-71
2022/11/07 04:57:19;;;;;;;167.37;80.80;;;;;;;;;;4973526;28;20201;-71
2022/11/07 04:59:45;;;;;;;124.30;66.80;;;;;;;;;;4973621;28;20756;-71
2022/11/07 05:02:11;;;;;;;100.60;61.17;;;;;;;;;;4984526;28;20304;-71
2022/11/07 05:04:38;;;;;;;114.83;65.30;;;;;;;;;;4982195;28;20681;-71
2022/11/07 05:07:04;;;;;;;188.60;84.90;;;;;;;;;;4970093;28;20223;-71
2022/11/07 05:09:30;;;;;;;187.70;87.63;;;;;;;;;;4962796;28;20590;-71
2022/11/07 05:11:56;;;;;;;231.47;100.57;;;;;;;;;;4964474;28;20197;-72
2022/11/07 05:14:22;;;;;;;169.90;85.97;;;;;;;;;;4967366;28;20718;-71
2022/11/07 05:16:49;;;;;;;123.67;72.10;;;;;;;;;;4989838;28;20356;-71
2022/11/07 05:19:16;;;;;;;188.07;88.23;;;;;;;;;;4978873;28;20319;-71
2022/11/07 05:21:42;;;;;;;192.43;90.53;;;;;;;;;;4978597;28;20638;-71
2022/11/07 05:24:08;;;;;;;158.13;79.93;;;;;;;;;;4977634;28;20491;-72
2022/11/07 05:26:34;;;;;;;117.23;70.30;;;;;;;;;;4994959;28;20224;-71
2022/11/07 05:29:00;;;;;;;114.43;68.00;;;;;;;;;;4987862;28;20475;-71
2022/11/07 05:31:26;;;;;;;160.17;81.73;;;;;;;;;;4982719;28;20565;-71
2022/11/07 05:33:52;;;;;;;125.70;72.00;;;;;;;;;;4980193;28;20214;-71
2022/11/07 05:36:18;;;;;;;168.60;83.97;;;;;;;;;;4971695;28;20678;-71
2022/11/07 05:38:45;;;;;;;168.77;85.03;;;;;;;;;;4973268;28;21183;-71
2022/11/07 05:41:12;;;;;;;182.37;92.53;;;;;;;;;;4970875;28;20327;-71
2022/11/07 05:43:38;;;;;;;223.67;103.00;;;;;;;;;;4963363;28;20213;-71
2022/11/07 05:46:04;;;;;;;180.97;87.77;;;;;;;;;;4969145;28;20728;-71
2022/11/07 05:48:30;;;;;;;112.77;71.23;;;;;;;;;;4967813;28;20682;-71
2022/11/07 05:50:57;;;;;;;164.77;85.07;;;;;;;;;;4980095;28;20177;-71
2022/11/07 05:53:24;;;;;;;245.23;110.03;;;;;;;;;;4980246;28;20213;-71
2022/11/07 05:55:50;;;;;;;286.33;125.80;;;;;;;;;;4963261;28;20245;-71
2022/11/07 05:58:16;;;;;;;373.43;157.10;;;;;;;;;;4962971;28;21263;-71
2022/11/07 06:00:42;;;;;;;182.33;91.83;;;;;;;;;;4994105;28;20538;-71
2022/11/07 06:03:08;;;;;;;115.23;71.53;;;;;;;;;;4995211;28;20327;-71
2022/11/07 06:05:34;;;;;;;306.87;124.53;;;;;;;;;;4974293;28;20276;-71
2022/11/07 06:08:00;;;;;;;198.07;98.67;;;;;;;;;;4971136;28;20324;-76
2022/11/07 06:10:26;;;;;;;149.93;83.60;;;;;;;;;;4983162;28;20248;-74
2022/11/07 06:12:59;;;;;;;175.87;90.80;;;;;;;;;;4976305;28;20213;-72
2022/11/07 06:15:28;;;;;;;362.97;154.63;;;;;;;;;;4973821;28;21622;-75
2022/11/07 06:18:01;;;;;;;119.83;76.10;;;;;;;;;;4983712;28;20244;-75
2022/11/07 06:20:57;;;;;;;106.60;70.40;;;;;;;;;;4996855;28;20228;-76
2022/11/07 06:23:46;;;;;;;122.27;75.47;;;;;;;;;;4979376;28;20221;-75
2022/11/07 06:26:22;;;;;;;102.40;71.37;;;;;;;;;;4963437;28;20264;-75
2022/11/07 06:28:53;;;;;;;99.03;67.30;;;;;;;;;;4990632;28;20244;-76
2022/11/07 06:31:23;;;;;;;142.83;85.40;;;;;;;;;;4972937;28;20210;-75
2022/11/07 06:33:52;;;;;;;148.47;84.67;;;;;;;;;;4973022;28;20220;-75
2022/11/07 06:36:22;;;;;;;179.47;94.40;;;;;;;;;;4988942;28;20264;-72
2022/11/07 06:38:51;;;;;;;265.80;121.83;;;;;;;;;;4990996;28;20226;-72
2022/11/07 06:41:17;;;;;;;113.27;75.50;;;;;;;;;;4996320;28;20575;-72
2022/11/07 06:43:43;;;;;;;118.07;76.87;;;;;;;;;;4984184;28;20251;-71
2022/11/07 06:46:10;;;;;;;232.00;112.40;;;;;;;;;;4971117;28;20212;-71
2022/11/07 06:48:36;;;;;;;213.77;106.57;;;;;;;;;;4969088;28;20331;-61
2022/11/07 06:51:03;;;;;;;152.67;89.03;;;;;;;;;;4940757;28;20181;-61
2022/11/07 06:53:29;;;;;;;192.27;104.77;;;;;;;;;;4983547;28;20305;-61
2022/11/07 06:55:56;;;;;;;167.27;94.40;;;;;;;;;;4986457;28;20225;-61
2022/11/07 06:58:22;;;;;;;199.57;105.10;;;;;;;;;;4959342;28;20346;-61
2022/11/07 07:00:48;;;;;;;169.23;97.70;;;;;;;;;;4970315;28;20213;-61
2022/11/07 07:03:14;;;;;;;151.17;89.60;;;;;;;;;;4984885;28;20239;-63
2022/11/07 07:05:40;;;;;;;173.60;96.43;;;;;;;;;;4990359;28;20280;-61
2022/11/07 07:08:07;;;;;;;210.30;110.53;;;;;;;;;;4991644;28;21907;-61
2022/11/07 07:10:38;;;;;;;158.13;92.73;;;;;;;;;;4981696;28;20214;-61
2022/11/07 07:13:04;;;;;;;203.33;106.77;;;;;;;;;;4972843;28;20531;-77
2022/11/07 07:15:31;;;;;;;188.97;109.37;;;;;;;;;;4970934;28;20269;-76
2022/11/07 07:18:00;;;;;;;191.80;99.63;;;;;;;;;;4967606;28;20205;-73
2022/11/07 07:20:26;;;;;;;161.50;86.10;;;;;;;;;;4974516;28;20273;-74
2022/11/07 07:22:52;;;;;;;139.20;81.10;;;;;;;;;;4973215;28;20256;-74
2022/11/07 07:25:18;;;;;;;125.63;81.17;;;;;;;;;;4981856;28;20631;-75
2022/11/07 07:27:44;;;;;;;179.30;92.33;;;;;;;;;;4973061;28;20214;-75
2022/11/07 07:30:10;;;;;;;159.07;84.53;;;;;;;;;;4977733;28;20196;-75
2022/11/07 07:32:36;;;;;;;132.27;77.20;;;;;;;;;;4979457;28;20217;-75
2022/11/07 07:35:02;;;;;;;201.67;96.10;;;;;;;;;;4980376;28;20205;-74
2022/11/07 07:37:28;;;;;;;118.37;76.43;;;;;;;;;;4975999;28;20221;-74
2022/11/07 07:39:54;;;;;;;160.10;87.70;;;;;;;;;;4977028;28;21460;-72
2022/11/07 07:42:20;;;;;;;135.70;81.70;;;;;;;;;;4982507;28;20189;-72
2022/11/07 07:44:46;;;;;;;203.00;102.87;;;;;;;;;;4970925;28;20764;-72
2022/11/07 07:47:12;;;;;;;139.40;86.40;;;;;;;;;;4999485;28;20251;-72
2022/11/07 07:49:38;;;;;;;224.93;103.97;;;;;;;;;;4973265;28;20689;-75
2022/11/07 07:52:04;;;;;;;154.70;88.13;;;;;;;;;;4967789;28;20225;-74
2022/11/07 07:54:30;;;;;;;135.93;84.07;;;;;;;;;;4974908;28;20261;-74
2022/11/07 07:56:56;;;;;;;207.43;107.20;;;;;;;;;;4978268;28;20332;-75
2022/11/07 07:59:22;;;;;;;142.77;86.53;;;;;;;;;;4976566;28;20232;-74
2022/11/07 08:01:48;;;;;;;184.60;98.33;;;;;;;;;;4969161;28;20210;-74
2022/11/07 08:04:14;;;;;;;160.43;93.67;;;;;;;;;;4983491;28;20304;-74
2022/11/07 08:06:40;;;;;;;135.23;84.50;;;;;;;;;;4995748;28;20220;-74
2022/11/07 08:09:06;;;;;;;177.00;97.20;;;;;;;;;;4977795;28;20565;-75
2022/11/07 08:11:32;;;;;;;149.80;88.43;;;;;;;;;;4985215;28;20678;-74
2022/11/07 08:13:58;;;;;;;219.30;114.20;;;;;;;;;;4977964;28;20221;-74
2022/11/07 08:16:24;;;;;;;133.17;84.93;;;;;;;;;;4988301;28;20225;-74
2022/11/07 08:18:50;;;;;;;230.87;119.70;;;;;;;;;;4966964;28;20217;-74
2022/11/07 08:21:16;;;;;;;159.03;94.77;;;;;;;;;;4992990;28;20189;-74
2022/11/07 08:23:41;;;;;;;145.90;89.53;;;;;;;;;;4995495;28;20222;-75
2022/11/07 08:26:07;;;;;;;138.23;86.23;;;;;;;;;;4984326;28;20698;-74
2022/11/07 08:28:34;;;;;;;287.47;137.37;;;;;;;;;;4976901;28;21908;-74
2022/11/07 08:31:06;;;;;;;202.67;109.70;;;;;;;;;;4977065;28;20364;-74
2022/11/07 08:33:32;;;;;;;239.80;124.87;;;;;;;;;;4987357;28;20399;-74
2022/11/07 08:35:59;;;;;;;157.30;94.00;;;;;;;;;;4975435;28;20280;-73
2022/11/07 08:38:25;;;;;;;177.00;100.80;;;;;;;;;;4983607;28;20244;-74
2022/11/07 08:40:52;;;;;;;225.97;115.27;;;;;;;;;;4986940;28;20231;-74
2022/11/07 08:43:18;;;;;;;253.63;121.50;;;;;;;;;;4972964;28;20225;-74
2022/11/07 08:45:44;;;;;;;230.63;118.93;;;;;;;;;;4975182;28;20189;-74
2022/11/07 08:48:11;;;;;;;179.90;103.10;;;;;;;;;;4994550;28;20201;-74
2022/11/07 08:50:37;;;;;;;244.07;124.13;;;;;;;;;;4977881;28;20217;-74
2022/11/07 08:53:03;;;;;;;325.90;154.07;;;;;;;;;;4971693;28;20482;-74
2022/11/07 08:55:29;;;;;;;196.50;105.87;;;;;;;;;;4984051;28;20376;-74
2022/11/07 08:58:02;;;;;;;342.43;154.43;;;;;;;;;;4975052;28;20216;-74
2022/11/07 09:00:28;;;;;;;342.40;166.20;;;;;;;;;;4973664;28;20208;-74
2022/11/07 09:02:54;;;;;;;200.87;107.30;;;;;;;;;;4990035;28;20296;-74
2022/11/07 09:05:20;;;;;;;206.80;110.37;;;;;;;;;;4991638;28;20220;-74
2022/11/07 09:07:47;;;;;;;243.20;120.40;;;;;;;;;;4979374;28;20232;-75
2022/11/07 09:10:13;;;;;;;253.27;129.97;;;;;;;;;;4982562;28;20202;-74
2022/11/07 09:12:46;;;;;;;268.50;136.90;;;;;;;;;;4982801;28;20192;-77
2022/11/07 09:15:12;;;;;;;203.17;110.37;;;;;;;;;;4975336;28;20185;-76
2022/11/07 09:17:38;;;;;;;164.67;97.03;;;;;;;;;;4992814;28;20227;-76
2022/11/07 09:20:04;;;;;;;184.10;104.10;;;;;;;;;;4996262;28;20216;-76
2022/11/07 09:22:30;;;;;;;224.73;116.67;;;;;;;;;;4977645;28;20612;-76
2022/11/07 09:24:56;;;;;;;245.77;124.13;;;;;;;;;;4986864;28;20219;-76
2022/11/07 09:27:22;;;;;;;198.47;107.77;;;;;;;;;;4987289;28;20205;-76
2022/11/07 09:29:48;;;;;;;207.63;113.43;;;;;;;;;;4979355;28;20574;-77
2022/11/07 09:32:14;;;;;;;165.53;96.73;;;;;;;;;;4993870;28;20213;-76
2022/11/07 09:34:39;;;;;;;318.63;151.20;;;;;;;;;;4985163;28;20226;-77
2022/11/07 09:37:05;;;;;;;300.57;144.33;;;;;;;;;;4973723;28;20850;-77
2022/11/07 09:39:32;;;;;;;246.13;121.57;;;;;;;;;;4985926;28;20201;-76
2022/11/07 09:42:02;;;;;;;175.73;100.40;;;;;;;;;;4984932;28;20181;-76
2022/11/07 09:44:28;;;;;;;227.90;116.93;;;;;;;;;;4973225;28;20344;-76
2022/11/07 09:46:54;;;;;;;239.40;122.63;;;;;;;;;;4972211;28;20225;-76
2022/11/07 09:49:33;;;;;;;245.03;121.43;;;;;;;;;;4969624;28;20229;-77
2022/11/07 09:52:03;;;;;;;271.73;133.27;;;;;;;;;;4992799;28;20310;-76
2022/11/07 09:54:32;;;;;;;248.80;122.33;;;;;;;;;;4967055;28;20232;-76
2022/11/07 09:56:59;;;;;;;304.50;142.20;;;;;;;;;;4969434;28;20324;-76
2022/11/07 09:59:29;;;;;;;363.73;160.13;;;;;;;;;;4973969;28;20229;-76
2022/11/07 10:01:55;;;;;;;314.60;140.80;;;;;;;;;;4980960;28;20316;-76
2022/11/07 10:04:21;;;;;;;321.03;143.67;;;;;;;;;;4977168;28;20304;-76
2022/11/07 10:06:50;;;;;;;383.17;164.90;;;;;;;;;;4975754;28;20304;-77
2022/11/07 10:09:16;;;;;;;409.93;175.70;;;;;;;;;;4963065;28;20178;-76
2022/11/07 10:11:42;;;;;;;348.30;151.63;;;;;;;;;;4968981;28;20264;-74
2022/11/07 10:14:21;;;;;;;502.63;214.90;;;;;;;;;;4967195;28;20213;-74
2022/11/07 10:16:56;;;;;;;460.43;202.57;;;;;;;;;;4974430;28;20213;-75
2022/11/07 10:19:40;;;;;;;387.63;167.63;;;;;;;;;;4977253;28;20298;-73
2022/11/07 10:22:25;;;;;;;334.97;148.50;;;;;;;;;;4975502;28;20205;-72
2022/11/07 10:24:51;;;;;;;391.37;169.70;;;;;;;;;;4979986;28;20237;-72
2022/11/07 10:27:17;;;;;;;347.00;157.93;;;;;;;;;;4980716;28;20985;-71
2022/11/07 10:29:43;;;;;;;332.27;147.13;;;;;;;;;;4960447;28;20710;-72
2022/11/07 10:32:16;;;;;;;436.20;182.13;;;;;;;;;;4968997;28;20312;-72
2022/11/07 10:35:01;;;;;;;347.97;149.60;;;;;;;;;;4982523;28;20225;-72
2022/11/07 10:37:26;;;;;;;326.73;145.73;;;;;;;;;;4987274;28;20276;-72
2022/11/07 10:39:52;;;;;;;383.07;159.07;;;;;;;;;;4990001;28;20299;-72
2022/11/07 10:42:30;;;;;;;378.07;157.77;;;;;;;;;;4979271;28;20181;-72
2022/11/07 10:44:58;;;;;;;307.00;135.67;;;;;;;;;;4976789;28;20208;-72
2022/11/07 10:47:26;;;;;;;248.63;124.63;;;;;;;;;;4981523;28;20384;-72
2022/11/07 10:49:54;;;;;;;256.93;127.33;;;;;;;;;;4981762;28;20677;-72
2022/11/07 10:52:20;;;;;;;596.17;225.00;;;;;;;;;;4962669;28;20217;-72
2022/11/07 10:54:46;;;;;;;317.77;144.17;;;;;;;;;;4983494;28;20274;-72
2022/11/07 10:57:15;;;;;;;302.80;143.00;;;;;;;;;;4994940;28;20621;-72
2022/11/07 10:59:45;;;;;;;229.33;117.50;;;;;;;;;;4995561;28;20621;-72
2022/11/07 11:02:22;;;;;;;260.63;125.83;;;;;;;;;;4989777;28;20296;-72
2022/11/07 11:04:53;;;;;;;287.37;132.00;;;;;;;;;;5001059;28;20244;-72
2022/11/07 11:07:19;;;;;;;237.90;123.23;;;;;;;;;;4986385;28;20227;-72
2022/11/07 11:09:52;;;;;;;258.27;125.73;;;;;;;;;;4994238;28;20682;-72
2022/11/07 11:12:21;;;;;;;257.70;126.67;;;;;;;;;;4989685;28;20177;-72
2022/11/07 11:14:47;;;;;;;357.40;155.50;;;;;;;;;;4975970;28;20216;-72
2022/11/07 11:17:23;;;;;;;373.43;173.80;;;;;;;;;;4970438;28;20272;-72
2022/11/07 11:19:54;;;;;;;298.57;143.97;;;;;;;;;;4987788;28;20308;-74
2022/11/07 11:22:24;;;;;;;407.37;175.27;;;;;;;;;;4968786;28;20220;-73
2022/11/07 11:25:04;;;;;;;325.30;148.43;;;;;;;;;;4972425;28;20224;-74
2022/11/07 11:27:33;;;;;;;323.37;160.23;;;;;;;;;;4979390;28;20567;-74
2022/11/07 11:30:12;;;;;;;304.70;149.47;;;;;;;;;;4972086;28;20197;-73
2022/11/07 11:32:38;;;;;;;333.07;159.77;;;;;;;;;;4987765;28;20601;-76
2022/11/07 11:35:04;;;;;;;365.43;172.47;;;;;;;;;;4993279;28;20228;-75
2022/11/07 11:37:31;;;;;;;385.63;183.80;;;;;;;;;;4980307;28;20300;-73
2022/11/07 11:39:57;;;;;;;324.00;154.23;;;;;;;;;;4977021;28;20766;-73
2022/11/07 11:42:26;;;;;;;365.27;162.10;;;;;;;;;;4978706;28;20205;-74
2022/11/07 11:44:55;;;;;;;357.77;160.70;;;;;;;;;;4971745;28;20598;-73
2022/11/07 11:47:24;;;;;;;293.33;139.53;;;;;;;;;;4987239;28;20225;-73
2022/11/07 11:49:52;;;;;;;382.60;166.83;;;;;;;;;;4985350;28;20205;-74
2022/11/07 11:52:20;;;;;;;461.27;191.73;;;;;;;;;;4970422;28;20249;-74
2022/11/07 11:54:46;;;;;;;285.73;138.00;;;;;;;;;;4960499;28;20221;-74
2022/11/07 11:57:18;;;;;;;374.20;180.43;;;;;;;;;;4974218;28;20208;-74
2022/11/07 12:00:19;;;;;;;392.17;171.37;;;;;;;;;;4970678;28;20312;-74
2022/11/07 12:02:46;;;;;;;333.27;158.00;;;;;;;;;;4968921;28;20227;-74
2022/11/07 12:05:31;;;;;;;372.13;169.80;;;;;;;;;;4976166;28;20312;-74
2022/11/07 12:07:56;;;;;;;371.13;174.53;;;;;;;;;;4982348;28;20838;-74
2022/11/07 12:10:31;;;;;;;445.57;210.33;;;;;;;;;;4960881;28;20232;-75
2022/11/07 12:13:00;;;;;;;361.60;170.47;;;;;;;;;;4976423;28;20213;-74
2022/11/07 12:15:34;;;;;;;384.87;174.53;;;;;;;;;;4975132;28;20197;-74
2022/11/07 12:18:07;;;;;;;432.30;184.97;;;;;;;;;;4979485;28;20212;-74
2022/11/07 12:20:43;;;;;;;446.57;194.60;;;;;;;;;;4990959;28;20216;-74
2022/11/07 12:23:08;;;;;;;322.23;157.47;;;;;;;;;;4990136;28;20255;-74
2022/11/07 12:25:53;;;;;;;323.17;152.70;;;;;;;;;;4995014;28;20217;-74
2022/11/07 12:28:38;;;;;;;432.43;201.30;;;;;;;;;;4966059;28;20694;-74
2022/11/07 12:31:23;;;;;;;533.37;242.77;;;;;;;;;;4966718;28;20228;-74
2022/11/07 12:34:08;;;;;;;490.37;231.40;;;;;;;;;;4976898;28;20765;-74
2022/11/07 12:36:48;;;;;;;589.83;271.77;;;;;;;;;;4958259;28;22240;-74
2022/11/07 12:39:26;;;;;;;418.57;199.90;;;;;;;;;;4968646;28;20661;-74
2022/11/07 12:42:06;;;;;;;383.40;177.53;;;;;;;;;;4973922;28;20216;-73
2022/11/07 12:44:32;;;;;;;418.30;192.53;;;;;;;;;;4964136;28;20271;-73
2022/11/07 12:46:59;;;;;;;400.87;189.73;;;;;;;;;;4967433;28;20225;-73
2022/11/07 12:49:31;;;;;;;410.37;201.37;;;;;;;;;;4968884;28;20213;-73
2022/11/07 12:52:03;;;;;;;456.93;221.83;;;;;;;;;;4983458;28;20237;-69
2022/11/07 12:54:41;;;;;;;382.83;192.40;;;;;;;;;;4975662;28;20196;-73
2022/11/07 12:57:16;;;;;;;426.67;208.87;;;;;;;;;;4962268;28;20198;-73
2022/11/07 12:59:44;;;;;;;477.73;217.17;;;;;;;;;;4959300;28;20225;-74
2022/11/07 13:02:13;;;;;;;361.30;171.97;;;;;;;;;;4995290;28;20209;-73
2022/11/07 13:04:54;;;;;;;449.43;206.27;;;;;;;;;;4972075;28;20224;-73
2022/11/07 13:07:24;;;;;;;359.83;173.10;;;;;;;;;;4977898;28;20417;-73
2022/11/07 13:10:00;;;;;;;372.30;181.50;;;;;;;;;;4974380;28;20668;-73
2022/11/07 13:12:31;;;;;;;431.70;208.30;;;;;;;;;;4975927;28;20188;-73
2022/11/07 13:14:57;;;;;;;396.20;189.37;;;;;;;;;;4967571;28;20805;-73
2022/11/07 13:17:26;;;;;;;380.40;186.57;;;;;;;;;;4986954;28;20217;-74
2022/11/07 13:20:03;;;;;;;430.05;215.07;;;;;;;;;;4980218;28;20217;-74
2022/11/07 13:22:32;;;;;;;423.03;212.67;;;;;;;;;;4979316;28;20223;-73
2022/11/07 13:25:01;;;;;;;418.70;204.70;;;;;;;;;;4982077;28;20214;-73
2022/11/07 13:27:32;;;;;;;383.47;189.00;;;;;;;;;;5006215;28;20205;-73
2022/11/07 13:30:09;;;;;;;389.70;193.13;;;;;;;;;;4989202;28;20224;-74
2022/11/07 13:32:38;;;;;;;385.03;186.10;;;;;;;;;;4979487;28;20213;-73
2022/11/07 13:35:07;;;;;;;446.60;210.50;;;;;;;;;;4988598;28;20219;-73
2022/11/07 13:37:35;;;;;;;428.05;198.60;;;;;;;;;;4977907;28;20463;-73
2022/11/07 13:40:06;;;;;;;384.53;175.10;;;;;;;;;;4998780;28;20381;-73
2022/11/07 13:42:33;;;;;;;393.30;184.80;;;;;;;;;;4986026;28;20189;-73
2022/11/07 13:45:06;;;;;;;457.03;195.13;;;;;;;;;;4984749;28;20537;-75
2022/11/07 13:47:34;;;;;;;544.90;225.73;;;;;;;;;;4961790;28;20252;-75
2022/11/07 13:50:04;;;;;;;576.07;238.63;;;;;;;;;;4965880;28;20227;-73
2022/11/07 13:52:53;;;;;;;444.07;191.40;;;;;;;;;;4983639;28;20217;-73
2022/11/07 13:55:21;;;;;;;453.50;190.43;;;;;;;;;;4968595;28;20873;-73
2022/11/07 13:57:50;;;;;;;500.60;227.93;;;;;;;;;;4966627;28;20388;-73
2022/11/07 14:00:19;;;;;;;556.20;224.00;;;;;;;;;;4971837;28;20663;-74
2022/11/07 14:02:53;;;;;;;453.57;190.43;;;;;;;;;;4965449;28;20347;-73
2022/11/07 14:05:21;;;;;;;476.73;196.37;;;;;;;;;;4956256;28;20213;-74
2022/11/07 14:07:50;;;;;;;418.67;190.63;;;;;;;;;;4973409;28;20765;-73
2022/11/07 14:10:37;;;;;;;413.43;187.63;;;;;;;;;;4974703;28;20231;-73
2022/11/07 14:13:10;;;;;;;459.77;204.17;;;;;;;;;;4967745;28;21168;-74
2022/11/07 14:15:43;;;;;;;431.80;192.93;;;;;;;;;;4987507;28;20185;-73
2022/11/07 14:18:14;;;;;;;415.87;185.53;;;;;;;;;;4982949;28;20205;-74